sensor_id;sensor_type;location;lat;lon;timestamp;temperature;humidity
63317;DHT22;49822;41.468;13.560;2023-08-01T00:01:09;24.70;88.50
63317;DHT22;49822;41.468;13.560;2023-08-01T00:03:38;24.70;87.90
63317;DHT22;49822;41.468;13.560;2023-08-01T00:06:05;24.80;87.50
63317;DHT22;49822;41.468;13.560;2023-08-01T00:08:31;24.80;87.50
63317;DHT22;49822;41.468;13.560;2023-08-01T00:10:57;24.90;87.00
63317;DHT22;49822;41.468;13.560;2023-08-01T00:13:24;24.80;87.00
63317;DHT22;49822;41.468;13.560;2023-08-01T00:15:50;24.70;87.20
63317;DHT22;49822;41.468;13.560;2023-08-01T00:18:16;24.80;87.60
63317;DHT22;49822;41.468;13.560;2023-08-01T00:20:42;24.70;87.80
63317;DHT22;49822;41.468;13.560;2023-08-01T00:23:08;24.60;88.00
63317;DHT22;49822;41.468;13.560;2023-08-01T00:25:34;24.50;88.50
63317;DHT22;49822;41.468;13.560;2023-08-01T00:28:01;24.40;89.40
63317;DHT22;49822;41.468;13.560;2023-08-01T00:30:27;24.00;90.10
63317;DHT22;49822;41.468;13.560;2023-08-01T00:32:54;24.00;90.00
63317;DHT22;49822;41.468;13.560;2023-08-01T00:35:20;24.10;89.80
63317;DHT22;49822;41.468;13.560;2023-08-01T00:37:46;24.20;89.50
63317;DHT22;49822;41.468;13.560;2023-08-01T00:40:12;24.30;89.30
63317;DHT22;49822;41.468;13.560;2023-08-01T00:42:38;24.40;88.70
63317;DHT22;49822;41.468;13.560;2023-08-01T00:45:05;24.40;88.20
63317;DHT22;49822;41.468;13.560;2023-08-01T00:47:32;24.50;88.10
63317;DHT22;49822;41.468;13.560;2023-08-01T00:49:58;24.60;88.00
63317;DHT22;49822;41.468;13.560;2023-08-01T00:52:25;24.70;87.50
63317;DHT22;49822;41.468;13.560;2023-08-01T00:54:52;24.70;87.50
63317;DHT22;49822;41.468;13.560;2023-08-01T00:57:18;24.80;87.60
63317;DHT22;49822;41.468;13.560;2023-08-01T00:59:44;24.80;87.30
63317;DHT22;49822;41.468;13.560;2023-08-01T01:02:11;24.80;87.30
63317;DHT22;49822;41.468;13.560;2023-08-01T01:04:38;24.90;87.10
63317;DHT22;49822;41.468;13.560;2023-08-01T01:07:06;24.80;87.20
63317;DHT22;49822;41.468;13.560;2023-08-01T01:09:32;24.80;87.10
63317;DHT22;49822;41.468;13.560;2023-08-01T01:11:59;24.80;87.80
63317;DHT22;49822;41.468;13.560;2023-08-01T01:14:29;24.80;87.60
63317;DHT22;49822;41.468;13.560;2023-08-01T01:16:55;24.70;87.60
63317;DHT22;49822;41.468;13.560;2023-08-01T01:19:22;24.60;89.30
63317;DHT22;49822;41.468;13.560;2023-08-01T01:21:48;24.40;89.80
63317;DHT22;49822;41.468;13.560;2023-08-01T01:24:16;24.40;90.10
63317;DHT22;49822;41.468;13.560;2023-08-01T01:26:44;24.40;90.00
63317;DHT22;49822;41.468;13.560;2023-08-01T01:29:11;24.40;89.20
63317;DHT22;49822;41.468;13.560;2023-08-01T01:31:38;24.50;88.80
63317;DHT22;49822;41.468;13.560;2023-08-01T01:34:05;24.60;89.20
63317;DHT22;49822;41.468;13.560;2023-08-01T01:36:31;24.50;88.70
63317;DHT22;49822;41.468;13.560;2023-08-01T01:38:58;24.60;88.20
63317;DHT22;49822;41.468;13.560;2023-08-01T01:41:24;24.70;88.50
63317;DHT22;49822;41.468;13.560;2023-08-01T01:43:51;24.60;88.30
63317;DHT22;49822;41.468;13.560;2023-08-01T01:46:17;24.60;88.30
63317;DHT22;49822;41.468;13.560;2023-08-01T01:48:43;24.50;88.30
63317;DHT22;49822;41.468;13.560;2023-08-01T01:51:09;24.60;88.50
63317;DHT22;49822;41.468;13.560;2023-08-01T01:53:36;24.50;88.40
63317;DHT22;49822;41.468;13.560;2023-08-01T01:56:02;24.30;89.50
63317;DHT22;49822;41.468;13.560;2023-08-01T01:58:28;24.30;89.30
63317;DHT22;49822;41.468;13.560;2023-08-01T02:00:54;24.30;90.00
63317;DHT22;49822;41.468;13.560;2023-08-01T02:03:20;24.40;90.00
63317;DHT22;49822;41.468;13.560;2023-08-01T02:05:46;24.40;89.40
63317;DHT22;49822;41.468;13.560;2023-08-01T02:08:13;24.40;89.20
63317;DHT22;49822;41.468;13.560;2023-08-01T02:10:39;24.40;89.20
63317;DHT22;49822;41.468;13.560;2023-08-01T02:13:05;24.50;89.40
63317;DHT22;49822;41.468;13.560;2023-08-01T02:15:32;24.50;88.80
63317;DHT22;49822;41.468;13.560;2023-08-01T02:17:58;24.40;89.30
63317;DHT22;49822;41.468;13.560;2023-08-01T02:20:24;24.40;89.30
63317;DHT22;49822;41.468;13.560;2023-08-01T02:22:52;24.40;89.20
63317;DHT22;49822;41.468;13.560;2023-08-01T02:25:20;24.40;89.50
63317;DHT22;49822;41.468;13.560;2023-08-01T02:27:46;24.40;89.60
63317;DHT22;49822;41.468;13.560;2023-08-01T02:30:12;24.60;89.90
63317;DHT22;49822;41.468;13.560;2023-08-01T02:32:38;24.50;89.90
63317;DHT22;49822;41.468;13.560;2023-08-01T02:35:05;24.50;89.80
63317;DHT22;49822;41.468;13.560;2023-08-01T02:37:31;24.30;90.50
63317;DHT22;49822;41.468;13.560;2023-08-01T02:39:57;24.10;91.10
63317;DHT22;49822;41.468;13.560;2023-08-01T02:42:23;24.20;90.70
63317;DHT22;49822;41.468;13.560;2023-08-01T02:44:49;24.20;90.50
63317;DHT22;49822;41.468;13.560;2023-08-01T02:47:15;24.40;90.50
63317;DHT22;49822;41.468;13.560;2023-08-01T02:49:41;24.40;90.30
63317;DHT22;49822;41.468;13.560;2023-08-01T02:52:07;24.40;90.10
63317;DHT22;49822;41.468;13.560;2023-08-01T02:54:33;24.40;89.80
63317;DHT22;49822;41.468;13.560;2023-08-01T02:56:59;24.40;89.30
63317;DHT22;49822;41.468;13.560;2023-08-01T02:59:26;24.40;89.20
63317;DHT22;49822;41.468;13.560;2023-08-01T03:01:52;24.40;89.00
63317;DHT22;49822;41.468;13.560;2023-08-01T03:04:19;24.50;89.70
63317;DHT22;49822;41.468;13.560;2023-08-01T03:06:45;24.50;89.80
63317;DHT22;49822;41.468;13.560;2023-08-01T03:09:11;24.40;89.70
63317;DHT22;49822;41.468;13.560;2023-08-01T03:11:37;24.40;89.50
63317;DHT22;49822;41.468;13.560;2023-08-01T03:14:03;24.40;89.00
63317;DHT22;49822;41.468;13.560;2023-08-01T03:16:32;24.30;89.20
63317;DHT22;49822;41.468;13.560;2023-08-01T03:18:58;24.30;89.70
63317;DHT22;49822;41.468;13.560;2023-08-01T03:21:34;24.20;90.10
63317;DHT22;49822;41.468;13.560;2023-08-01T03:24:01;24.20;89.90
63317;DHT22;49822;41.468;13.560;2023-08-01T03:26:28;24.20;90.20
63317;DHT22;49822;41.468;13.560;2023-08-01T03:28:55;24.10;90.20
63317;DHT22;49822;41.468;13.560;2023-08-01T03:31:25;24.10;90.60
63317;DHT22;49822;41.468;13.560;2023-08-01T03:33:52;24.00;90.90
63317;DHT22;49822;41.468;13.560;2023-08-01T03:36:18;23.90;90.90
63317;DHT22;49822;41.468;13.560;2023-08-01T03:38:45;23.80;91.50
63317;DHT22;49822;41.468;13.560;2023-08-01T03:41:11;23.50;93.10
63317;DHT22;49822;41.468;13.560;2023-08-01T03:43:37;23.30;93.80
63317;DHT22;49822;41.468;13.560;2023-08-01T03:46:04;23.10;94.40
63317;DHT22;49822;41.468;13.560;2023-08-01T03:48:30;23.10;95.20
63317;DHT22;49822;41.468;13.560;2023-08-01T03:50:56;23.20;95.00
63317;DHT22;49822;41.468;13.560;2023-08-01T03:53:24;23.20;95.10
63317;DHT22;49822;41.468;13.560;2023-08-01T03:55:50;23.30;94.40
63317;DHT22;49822;41.468;13.560;2023-08-01T03:58:17;23.40;94.00
63317;DHT22;49822;41.468;13.560;2023-08-01T04:00:43;23.40;93.50
63317;DHT22;49822;41.468;13.560;2023-08-01T04:03:09;23.50;93.40
63317;DHT22;49822;41.468;13.560;2023-08-01T04:05:35;23.30;94.00
63317;DHT22;49822;41.468;13.560;2023-08-01T04:08:02;23.20;94.00
63317;DHT22;49822;41.468;13.560;2023-08-01T04:10:28;23.20;94.60
63317;DHT22;49822;41.468;13.560;2023-08-01T04:12:54;23.20;94.70
63317;DHT22;49822;41.468;13.560;2023-08-01T04:15:21;23.20;94.50
63317;DHT22;49822;41.468;13.560;2023-08-01T04:17:47;23.20;94.00
63317;DHT22;49822;41.468;13.560;2023-08-01T04:20:13;23.40;93.20
63317;DHT22;49822;41.468;13.560;2023-08-01T04:22:39;23.60;92.00
63317;DHT22;49822;41.468;13.560;2023-08-01T04:25:06;23.70;91.60
63317;DHT22;49822;41.468;13.560;2023-08-01T04:27:33;23.80;91.20
63317;DHT22;49822;41.468;13.560;2023-08-01T04:29:59;23.80;91.00
63317;DHT22;49822;41.468;13.560;2023-08-01T04:32:25;23.90;90.60
63317;DHT22;49822;41.468;13.560;2023-08-01T04:34:51;23.90;90.50
63317;DHT22;49822;41.468;13.560;2023-08-01T04:37:18;23.70;91.40
63317;DHT22;49822;41.468;13.560;2023-08-01T04:39:46;23.70;91.50
63317;DHT22;49822;41.468;13.560;2023-08-01T04:42:13;23.80;91.20
63317;DHT22;49822;41.468;13.560;2023-08-01T04:44:39;24.00;91.00
63317;DHT22;49822;41.468;13.560;2023-08-01T04:47:05;24.00;90.80
63317;DHT22;49822;41.468;13.560;2023-08-01T04:49:31;24.10;90.70
63317;DHT22;49822;41.468;13.560;2023-08-01T04:51:57;24.10;90.80
63317;DHT22;49822;41.468;13.560;2023-08-01T04:54:23;24.20;90.80
63317;DHT22;49822;41.468;13.560;2023-08-01T04:56:49;24.20;90.60
63317;DHT22;49822;41.468;13.560;2023-08-01T04:59:16;24.30;90.40
63317;DHT22;49822;41.468;13.560;2023-08-01T05:01:42;24.40;90.70
63317;DHT22;49822;41.468;13.560;2023-08-01T05:04:08;24.30;91.10
63317;DHT22;49822;41.468;13.560;2023-08-01T05:06:35;24.10;92.00
63317;DHT22;49822;41.468;13.560;2023-08-01T05:09:01;24.10;91.70
63317;DHT22;49822;41.468;13.560;2023-08-01T05:11:27;24.40;91.30
63317;DHT22;49822;41.468;13.560;2023-08-01T05:13:53;24.40;90.90
63317;DHT22;49822;41.468;13.560;2023-08-01T05:20:09;24.80;90.10
63317;DHT22;49822;41.468;13.560;2023-08-01T05:22:35;24.80;89.90
63317;DHT22;49822;41.468;13.560;2023-08-01T05:25:01;25.00;89.80
63317;DHT22;49822;41.468;13.560;2023-08-01T05:27:27;25.00;89.70
63317;DHT22;49822;41.468;13.560;2023-08-01T05:29:53;25.20;89.80
63317;DHT22;49822;41.468;13.560;2023-08-01T05:32:19;25.20;89.80
63317;DHT22;49822;41.468;13.560;2023-08-01T05:34:45;25.20;89.70
63317;DHT22;49822;41.468;13.560;2023-08-01T05:37:11;25.30;89.70
63317;DHT22;49822;41.468;13.560;2023-08-01T05:39:37;25.30;89.00
63317;DHT22;49822;41.468;13.560;2023-08-01T05:42:04;25.40;89.00
63317;DHT22;49822;41.468;13.560;2023-08-01T05:44:34;25.60;88.90
63317;DHT22;49822;41.468;13.560;2023-08-01T05:47:00;25.70;88.90
63317;DHT22;49822;41.468;13.560;2023-08-01T05:49:26;25.70;88.30
63317;DHT22;49822;41.468;13.560;2023-08-01T05:51:52;25.80;88.20
63317;DHT22;49822;41.468;13.560;2023-08-01T05:54:18;26.00;88.10
63317;DHT22;49822;41.468;13.560;2023-08-01T05:56:45;26.00;88.10
63317;DHT22;49822;41.468;13.560;2023-08-01T05:59:11;26.10;87.60
63317;DHT22;49822;41.468;13.560;2023-08-01T06:01:37;26.20;87.70
63317;DHT22;49822;41.468;13.560;2023-08-01T06:04:03;26.20;87.50
63317;DHT22;49822;41.468;13.560;2023-08-01T06:06:30;26.20;87.60
63317;DHT22;49822;41.468;13.560;2023-08-01T06:08:56;26.30;87.50
63317;DHT22;49822;41.468;13.560;2023-08-01T06:11:22;26.50;86.90
63317;DHT22;49822;41.468;13.560;2023-08-01T06:13:49;26.50;86.50
63317;DHT22;49822;41.468;13.560;2023-08-01T06:16:15;26.70;86.40
63317;DHT22;49822;41.468;13.560;2023-08-01T06:18:41;26.80;86.20
63317;DHT22;49822;41.468;13.560;2023-08-01T06:21:07;26.80;85.90
63317;DHT22;49822;41.468;13.560;2023-08-01T06:23:33;26.90;85.90
63317;DHT22;49822;41.468;13.560;2023-08-01T06:25:59;27.00;85.80
63317;DHT22;49822;41.468;13.560;2023-08-01T06:28:26;27.00;85.70
63317;DHT22;49822;41.468;13.560;2023-08-01T06:30:52;27.10;85.60
63317;DHT22;49822;41.468;13.560;2023-08-01T06:33:18;27.10;85.40
63317;DHT22;49822;41.468;13.560;2023-08-01T06:35:44;27.20;85.50
63317;DHT22;49822;41.468;13.560;2023-08-01T06:38:10;27.20;85.80
63317;DHT22;49822;41.468;13.560;2023-08-01T06:40:36;27.10;85.70
63317;DHT22;49822;41.468;13.560;2023-08-01T06:43:03;27.10;85.40
63317;DHT22;49822;41.468;13.560;2023-08-01T06:45:30;27.20;85.70
63317;DHT22;49822;41.468;13.560;2023-08-01T06:47:56;27.20;85.60
63317;DHT22;49822;41.468;13.560;2023-08-01T06:50:22;27.20;85.50
63317;DHT22;49822;41.468;13.560;2023-08-01T06:52:49;27.30;85.50
63317;DHT22;49822;41.468;13.560;2023-08-01T06:55:15;27.40;85.50
63317;DHT22;49822;41.468;13.560;2023-08-01T06:57:41;27.50;85.40
63317;DHT22;49822;41.468;13.560;2023-08-01T07:00:08;27.60;85.00
63317;DHT22;49822;41.468;13.560;2023-08-01T07:02:34;27.70;84.90
63317;DHT22;49822;41.468;13.560;2023-08-01T07:05:00;27.70;84.70
63317;DHT22;49822;41.468;13.560;2023-08-01T07:07:26;27.80;84.70
63317;DHT22;49822;41.468;13.560;2023-08-01T07:09:52;27.80;84.40
63317;DHT22;49822;41.468;13.560;2023-08-01T07:12:18;27.80;84.20
63317;DHT22;49822;41.468;13.560;2023-08-01T07:14:44;28.00;84.30
63317;DHT22;49822;41.468;13.560;2023-08-01T07:17:10;28.10;84.20
63317;DHT22;49822;41.468;13.560;2023-08-01T07:19:36;28.30;84.00
63317;DHT22;49822;41.468;13.560;2023-08-01T07:22:02;28.30;83.80
63317;DHT22;49822;41.468;13.560;2023-08-01T07:24:29;28.50;83.80
63317;DHT22;49822;41.468;13.560;2023-08-01T07:26:55;28.60;83.30
63317;DHT22;49822;41.468;13.560;2023-08-01T07:29:24;28.60;83.20
63317;DHT22;49822;41.468;13.560;2023-08-01T07:31:51;28.60;83.00
63317;DHT22;49822;41.468;13.560;2023-08-01T07:34:17;28.50;83.30
63317;DHT22;49822;41.468;13.560;2023-08-01T07:36:45;28.50;83.50
63317;DHT22;49822;41.468;13.560;2023-08-01T07:39:11;28.60;83.20
63317;DHT22;49822;41.468;13.560;2023-08-01T07:41:37;28.70;83.50
63317;DHT22;49822;41.468;13.560;2023-08-01T07:44:03;28.70;83.20
63317;DHT22;49822;41.468;13.560;2023-08-01T07:46:29;28.90;82.80
63317;DHT22;49822;41.468;13.560;2023-08-01T07:48:55;29.10;81.90
63317;DHT22;49822;41.468;13.560;2023-08-01T07:51:21;29.30;81.50
63317;DHT22;49822;41.468;13.560;2023-08-01T07:53:47;29.50;81.00
63317;DHT22;49822;41.468;13.560;2023-08-01T07:56:13;29.70;80.90
63317;DHT22;49822;41.468;13.560;2023-08-01T07:58:40;29.80;80.60
63317;DHT22;49822;41.468;13.560;2023-08-01T08:01:08;29.80;80.60
63317;DHT22;49822;41.468;13.560;2023-08-01T08:03:34;29.90;80.10
63317;DHT22;49822;41.468;13.560;2023-08-01T08:06:00;30.00;78.60
63317;DHT22;49822;41.468;13.560;2023-08-01T08:08:29;29.90;79.50
63317;DHT22;49822;41.468;13.560;2023-08-01T08:10:55;30.00;79.80
63317;DHT22;49822;41.468;13.560;2023-08-01T08:13:21;30.20;79.60
63317;DHT22;49822;41.468;13.560;2023-08-01T08:15:48;30.30;79.30
63317;DHT22;49822;41.468;13.560;2023-08-01T08:18:14;30.50;79.10
63317;DHT22;49822;41.468;13.560;2023-08-01T08:20:42;30.60;78.40
63317;DHT22;49822;41.468;13.560;2023-08-01T08:23:09;30.80;78.10
63317;DHT22;49822;41.468;13.560;2023-08-01T08:25:35;30.90;77.80
63317;DHT22;49822;41.468;13.560;2023-08-01T08:28:01;31.00;77.90
63317;DHT22;49822;41.468;13.560;2023-08-01T08:30:28;31.00;78.00
63317;DHT22;49822;41.468;13.560;2023-08-01T08:32:57;31.10;77.50
63317;DHT22;49822;41.468;13.560;2023-08-01T08:35:24;31.30;76.90
63317;DHT22;49822;41.468;13.560;2023-08-01T08:37:50;31.50;77.50
63317;DHT22;49822;41.468;13.560;2023-08-01T08:40:16;31.60;76.10
63317;DHT22;49822;41.468;13.560;2023-08-01T08:42:43;31.50;75.50
63317;DHT22;49822;41.468;13.560;2023-08-01T08:45:15;31.50;74.50
63317;DHT22;49822;41.468;13.560;2023-08-01T08:47:53;31.10;76.40
63317;DHT22;49822;41.468;13.560;2023-08-01T08:50:20;31.20;76.90
63317;DHT22;49822;41.468;13.560;2023-08-01T08:52:46;31.60;75.60
63317;DHT22;49822;41.468;13.560;2023-08-01T08:55:13;31.70;75.70
63317;DHT22;49822;41.468;13.560;2023-08-01T08:57:39;31.80;75.60
63317;DHT22;49822;41.468;13.560;2023-08-01T09:00:07;31.80;75.10
63317;DHT22;49822;41.468;13.560;2023-08-01T09:02:35;31.90;73.80
63317;DHT22;49822;41.468;13.560;2023-08-01T09:05:01;32.00;73.60
63317;DHT22;49822;41.468;13.560;2023-08-01T09:07:30;31.70;74.50
63317;DHT22;49822;41.468;13.560;2023-08-01T09:09:59;31.90;72.60
63317;DHT22;49822;41.468;13.560;2023-08-01T09:12:25;31.70;74.40
63317;DHT22;49822;41.468;13.560;2023-08-01T09:14:52;31.90;73.40
63317;DHT22;49822;41.468;13.560;2023-08-01T09:17:22;31.90;73.20
63317;DHT22;49822;41.468;13.560;2023-08-01T09:19:48;32.00;73.70
63317;DHT22;49822;41.468;13.560;2023-08-01T09:22:14;32.00;72.40
63317;DHT22;49822;41.468;13.560;2023-08-01T09:24:53;32.00;72.90
63317;DHT22;49822;41.468;13.560;2023-08-01T09:27:21;31.70;74.00
63317;DHT22;49822;41.468;13.560;2023-08-01T09:29:48;31.50;74.40
63317;DHT22;49822;41.468;13.560;2023-08-01T09:32:14;31.20;74.50
63317;DHT22;49822;41.468;13.560;2023-08-01T09:34:41;30.90;75.00
63317;DHT22;49822;41.468;13.560;2023-08-01T09:37:09;30.90;75.10
63317;DHT22;49822;41.468;13.560;2023-08-01T09:39:35;30.90;75.70
63317;DHT22;49822;41.468;13.560;2023-08-01T09:42:02;31.20;75.20
63317;DHT22;49822;41.468;13.560;2023-08-01T09:44:29;31.60;74.50
63317;DHT22;49822;41.468;13.560;2023-08-01T09:46:59;31.90;72.50
63317;DHT22;49822;41.468;13.560;2023-08-01T09:49:27;32.20;72.00
63317;DHT22;49822;41.468;13.560;2023-08-01T09:51:54;32.30;71.80
63317;DHT22;49822;41.468;13.560;2023-08-01T09:54:20;32.60;72.30
63317;DHT22;49822;41.468;13.560;2023-08-01T09:56:50;32.80;71.00
63317;DHT22;49822;41.468;13.560;2023-08-01T09:59:24;33.00;71.00
63317;DHT22;49822;41.468;13.560;2023-08-01T10:01:52;32.90;70.10
63317;DHT22;49822;41.468;13.560;2023-08-01T10:04:25;32.70;69.20
63317;DHT22;49822;41.468;13.560;2023-08-01T10:06:59;32.70;69.60
63317;DHT22;49822;41.468;13.560;2023-08-01T10:09:26;32.80;69.20
63317;DHT22;49822;41.468;13.560;2023-08-01T10:11:56;32.70;70.00
63317;DHT22;49822;41.468;13.560;2023-08-01T10:14:23;32.50;71.00
63317;DHT22;49822;41.468;13.560;2023-08-01T10:16:51;32.60;69.70
63317;DHT22;49822;41.468;13.560;2023-08-01T10:19:17;32.30;70.50
63317;DHT22;49822;41.468;13.560;2023-08-01T10:21:47;32.10;70.90
63317;DHT22;49822;41.468;13.560;2023-08-01T10:24:13;31.90;70.90
63317;DHT22;49822;41.468;13.560;2023-08-01T10:26:40;31.80;71.80
63317;DHT22;49822;41.468;13.560;2023-08-01T10:29:06;31.50;71.60
63317;DHT22;49822;41.468;13.560;2023-08-01T10:31:32;31.50;72.10
63317;DHT22;49822;41.468;13.560;2023-08-01T10:34:07;31.60;71.80
63317;DHT22;49822;41.468;13.560;2023-08-01T10:36:33;31.90;71.90
63317;DHT22;49822;41.468;13.560;2023-08-01T10:39:01;32.20;70.20
63317;DHT22;49822;41.468;13.560;2023-08-01T10:41:29;32.20;69.20
63317;DHT22;49822;41.468;13.560;2023-08-01T10:44:10;32.00;68.30
63317;DHT22;49822;41.468;13.560;2023-08-01T10:49:19;31.10;70.60
63317;DHT22;49822;41.468;13.560;2023-08-01T10:51:46;31.00;71.60
63317;DHT22;49822;41.468;13.560;2023-08-01T10:54:19;31.20;72.00
63317;DHT22;49822;41.468;13.560;2023-08-01T10:56:47;30.90;72.30
63317;DHT22;49822;41.468;13.560;2023-08-01T10:59:14;31.20;71.50
63317;DHT22;49822;41.468;13.560;2023-08-01T11:01:49;31.30;71.20
63317;DHT22;49822;41.468;13.560;2023-08-01T11:04:23;31.10;72.20
63317;DHT22;49822;41.468;13.560;2023-08-01T11:06:51;30.70;70.30
63317;DHT22;49822;41.468;13.560;2023-08-01T11:09:19;30.50;71.70
63317;DHT22;49822;41.468;13.560;2023-08-01T11:11:48;30.60;71.20
63317;DHT22;49822;41.468;13.560;2023-08-01T11:14:14;30.40;70.70
63317;DHT22;49822;41.468;13.560;2023-08-01T11:16:40;30.30;70.30
63317;DHT22;49822;41.468;13.560;2023-08-01T11:19:24;30.40;70.00
63317;DHT22;49822;41.468;13.560;2023-08-01T11:21:52;30.40;69.50
63317;DHT22;49822;41.468;13.560;2023-08-01T11:24:19;30.60;69.00
63317;DHT22;49822;41.468;13.560;2023-08-01T11:26:47;30.50;68.30
63317;DHT22;49822;41.468;13.560;2023-08-01T11:29:15;30.40;67.90
63317;DHT22;49822;41.468;13.560;2023-08-01T11:31:41;30.40;68.20
63317;DHT22;49822;41.468;13.560;2023-08-01T11:34:18;30.40;67.10
63317;DHT22;49822;41.468;13.560;2023-08-01T11:36:45;30.40;67.60
63317;DHT22;49822;41.468;13.560;2023-08-01T11:39:12;30.30;67.20
63317;DHT22;49822;41.468;13.560;2023-08-01T11:41:38;30.30;66.70
63317;DHT22;49822;41.468;13.560;2023-08-01T11:44:05;30.10;67.00
63317;DHT22;49822;41.468;13.560;2023-08-01T11:46:34;30.20;66.30
63317;DHT22;49822;41.468;13.560;2023-08-01T11:49:07;30.40;66.20
63317;DHT22;49822;41.468;13.560;2023-08-01T11:51:43;30.20;66.50
63317;DHT22;49822;41.468;13.560;2023-08-01T11:54:12;30.10;66.30
63317;DHT22;49822;41.468;13.560;2023-08-01T11:56:40;29.90;66.90
63317;DHT22;49822;41.468;13.560;2023-08-01T11:59:14;30.10;66.20
63317;DHT22;49822;41.468;13.560;2023-08-01T12:01:45;30.20;66.70
63317;DHT22;49822;41.468;13.560;2023-08-01T12:04:23;30.20;67.30
63317;DHT22;49822;41.468;13.560;2023-08-01T12:06:49;30.10;67.40
63317;DHT22;49822;41.468;13.560;2023-08-01T12:09:16;30.10;66.80
63317;DHT22;49822;41.468;13.560;2023-08-01T12:11:42;29.90;67.20
63317;DHT22;49822;41.468;13.560;2023-08-01T12:14:12;29.70;67.10
63317;DHT22;49822;41.468;13.560;2023-08-01T12:16:42;29.80;67.20
63317;DHT22;49822;41.468;13.560;2023-08-01T12:19:10;29.50;67.20
63317;DHT22;49822;41.468;13.560;2023-08-01T12:21:37;29.60;67.60
63317;DHT22;49822;41.468;13.560;2023-08-01T12:24:03;29.60;67.30
63317;DHT22;49822;41.468;13.560;2023-08-01T12:26:30;29.70;67.60
63317;DHT22;49822;41.468;13.560;2023-08-01T12:28:56;29.80;66.30
63317;DHT22;49822;41.468;13.560;2023-08-01T12:31:23;29.90;65.70
63317;DHT22;49822;41.468;13.560;2023-08-01T12:33:50;29.90;66.80
63317;DHT22;49822;41.468;13.560;2023-08-01T12:36:18;30.10;65.40
63317;DHT22;49822;41.468;13.560;2023-08-01T12:38:45;29.90;65.60
63317;DHT22;49822;41.468;13.560;2023-08-01T12:41:11;29.90;66.00
63317;DHT22;49822;41.468;13.560;2023-08-01T12:43:37;29.70;66.50
63317;DHT22;49822;41.468;13.560;2023-08-01T12:46:04;29.90;66.70
63317;DHT22;49822;41.468;13.560;2023-08-01T12:48:30;29.90;66.10
63317;DHT22;49822;41.468;13.560;2023-08-01T12:50:56;29.80;65.70
63317;DHT22;49822;41.468;13.560;2023-08-01T12:53:23;29.80;65.90
63317;DHT22;49822;41.468;13.560;2023-08-01T12:55:53;29.80;66.60
63317;DHT22;49822;41.468;13.560;2023-08-01T12:58:19;30.00;65.70
63317;DHT22;49822;41.468;13.560;2023-08-01T13:00:45;29.70;65.90
63317;DHT22;49822;41.468;13.560;2023-08-01T13:03:13;29.80;66.10
63317;DHT22;49822;41.468;13.560;2023-08-01T13:05:40;29.80;66.30
63317;DHT22;49822;41.468;13.560;2023-08-01T13:08:07;29.60;66.10
63317;DHT22;49822;41.468;13.560;2023-08-01T13:10:36;29.70;66.40
63317;DHT22;49822;41.468;13.560;2023-08-01T13:13:03;29.50;66.50
63317;DHT22;49822;41.468;13.560;2023-08-01T13:15:30;29.30;67.00
63317;DHT22;49822;41.468;13.560;2023-08-01T13:17:57;29.20;65.90
63317;DHT22;49822;41.468;13.560;2023-08-01T13:20:23;29.30;67.40
63317;DHT22;49822;41.468;13.560;2023-08-01T13:23:08;29.10;67.70
63317;DHT22;49822;41.468;13.560;2023-08-01T13:25:35;29.10;67.60
63317;DHT22;49822;41.468;13.560;2023-08-01T13:28:01;29.20;68.00
63317;DHT22;49822;41.468;13.560;2023-08-01T13:30:28;29.20;68.30
63317;DHT22;49822;41.468;13.560;2023-08-01T13:32:54;29.40;67.90
63317;DHT22;49822;41.468;13.560;2023-08-01T13:35:20;29.30;67.80
63317;DHT22;49822;41.468;13.560;2023-08-01T13:37:46;29.10;69.30
63317;DHT22;49822;41.468;13.560;2023-08-01T13:40:12;28.90;70.80
63317;DHT22;49822;41.468;13.560;2023-08-01T13:42:40;28.90;71.20
63317;DHT22;49822;41.468;13.560;2023-08-01T13:45:07;29.10;69.50
63317;DHT22;49822;41.468;13.560;2023-08-01T13:47:34;29.30;69.30
63317;DHT22;49822;41.468;13.560;2023-08-01T13:50:00;29.10;68.50
63317;DHT22;49822;41.468;13.560;2023-08-01T13:52:26;29.10;68.10
63317;DHT22;49822;41.468;13.560;2023-08-01T13:54:52;29.40;68.40
63317;DHT22;49822;41.468;13.560;2023-08-01T13:57:18;29.30;68.80
63317;DHT22;49822;41.468;13.560;2023-08-01T13:59:45;29.30;68.90
63317;DHT22;49822;41.468;13.560;2023-08-01T14:02:11;29.20;67.60
63317;DHT22;49822;41.468;13.560;2023-08-01T14:04:37;29.10;68.60
63317;DHT22;49822;41.468;13.560;2023-08-01T14:07:04;29.10;69.10
63317;DHT22;49822;41.468;13.560;2023-08-01T14:09:30;29.20;67.30
63317;DHT22;49822;41.468;13.560;2023-08-01T14:11:58;29.20;66.50
63317;DHT22;49822;41.468;13.560;2023-08-01T14:14:24;29.30;67.30
63317;DHT22;49822;41.468;13.560;2023-08-01T14:16:51;29.30;66.70
63317;DHT22;49822;41.468;13.560;2023-08-01T14:19:17;29.20;67.60
63317;DHT22;49822;41.468;13.560;2023-08-01T14:21:43;29.00;68.30
63317;DHT22;49822;41.468;13.560;2023-08-01T14:24:09;29.30;66.40
63317;DHT22;49822;41.468;13.560;2023-08-01T14:26:35;29.40;66.70
63317;DHT22;49822;41.468;13.560;2023-08-01T14:29:02;29.30;66.20
63317;DHT22;49822;41.468;13.560;2023-08-01T14:31:28;29.30;65.50
63317;DHT22;49822;41.468;13.560;2023-08-01T14:33:54;29.50;65.80
63317;DHT22;49822;41.468;13.560;2023-08-01T14:36:20;29.60;65.70
63317;DHT22;49822;41.468;13.560;2023-08-01T14:38:46;29.40;64.70
63317;DHT22;49822;41.468;13.560;2023-08-01T14:41:19;29.40;65.40
63317;DHT22;49822;41.468;13.560;2023-08-01T14:43:45;29.50;65.70
63317;DHT22;49822;41.468;13.560;2023-08-01T14:46:11;29.60;65.80
63317;DHT22;49822;41.468;13.560;2023-08-01T14:48:37;29.70;65.90
63317;DHT22;49822;41.468;13.560;2023-08-01T14:51:06;29.30;66.60
63317;DHT22;49822;41.468;13.560;2023-08-01T14:53:33;29.50;66.30
63317;DHT22;49822;41.468;13.560;2023-08-01T14:55:59;29.40;66.50
63317;DHT22;49822;41.468;13.560;2023-08-01T14:58:26;29.50;65.30
63317;DHT22;49822;41.468;13.560;2023-08-01T15:00:52;29.50;65.60
63317;DHT22;49822;41.468;13.560;2023-08-01T15:03:18;29.50;65.40
63317;DHT22;49822;41.468;13.560;2023-08-01T15:05:44;29.30;64.70
63317;DHT22;49822;41.468;13.560;2023-08-01T15:08:11;29.30;65.90
63317;DHT22;49822;41.468;13.560;2023-08-01T15:10:38;28.90;68.20
63317;DHT22;49822;41.468;13.560;2023-08-01T15:13:04;28.80;67.30
63317;DHT22;49822;41.468;13.560;2023-08-01T15:15:38;29.10;67.10
63317;DHT22;49822;41.468;13.560;2023-08-01T15:18:04;29.00;67.80
63317;DHT22;49822;41.468;13.560;2023-08-01T15:20:32;29.10;67.30